CPX413 Details

Departure: Tulsa International Airport (KTUL)
Arrival: Miami International Airport (KMIA) at N/A
Route: MAYJI FSM LIT SQS MEI ACORI BULZI NICKI Q81 ENDEW JUULI SSCOT5
Notes:


Current Weather Information
KTUL 251053Z 16010G17KT 10SM BKN011 OVC015 24/23 A2986 RMK AO2 SLP102 T02440233 $
KMIA 251053Z 00000KT 10SM FEW025 SCT250 27/24 A2991 RMK AO2 SLP129 CB DSNT SW T02670244